sensor_id;sensor_type;location;lat;lon;timestamp;P1;durP1;ratioP1;P2;durP2;ratioP2
32752;SDS011;19121;52.428;10.816;2022-09-23T00:01:30;0.30;;;0.30;;
32752;SDS011;19121;52.428;10.816;2022-09-23T00:03:57;0.30;;;0.20;;
32752;SDS011;19121;52.428;10.816;2022-09-23T00:06:23;0.30;;;0.30;;
32752;SDS011;19121;52.428;10.816;2022-09-23T00:08:49;0.55;;;0.50;;
32752;SDS011;19121;52.428;10.816;2022-09-23T00:11:20;0.35;;;0.20;;
32752;SDS011;19121;52.428;10.816;2022-09-23T00:13:51;0.32;;;0.30;;
32752;SDS011;19121;52.428;10.816;2022-09-23T00:16:21;0.52;;;0.30;;
32752;SDS011;19121;52.428;10.816;2022-09-23T00:18:48;0.43;;;0.38;;
32752;SDS011;19121;52.428;10.816;2022-09-23T00:21:14;0.40;;;0.38;;
32752;SDS011;19121;52.428;10.816;2022-09-23T00:23:41;0.43;;;0.40;;
32752;SDS011;19121;52.428;10.816;2022-09-23T00:26:08;0.82;;;0.30;;
32752;SDS011;19121;52.428;10.816;2022-09-23T00:28:36;0.35;;;0.30;;
32752;SDS011;19121;52.428;10.816;2022-09-23T00:31:02;0.30;;;0.30;;
32752;SDS011;19121;52.428;10.816;2022-09-23T00:33:29;0.65;;;0.30;;
32752;SDS011;19121;52.428;10.816;2022-09-23T00:36:02;0.30;;;0.30;;
32752;SDS011;19121;52.428;10.816;2022-09-23T00:38:28;1.00;;;0.45;;
32752;SDS011;19121;52.428;10.816;2022-09-23T00:40:54;0.30;;;0.30;;
32752;SDS011;19121;52.428;10.816;2022-09-23T00:43:34;0.47;;;0.30;;
32752;SDS011;19121;52.428;10.816;2022-09-23T00:46:10;0.68;;;0.25;;
32752;SDS011;19121;52.428;10.816;2022-09-23T00:48:45;0.57;;;0.32;;
32752;SDS011;19121;52.428;10.816;2022-09-23T00:51:15;0.45;;;0.30;;
32752;SDS011;19121;52.428;10.816;2022-09-23T00:53:45;0.40;;;0.40;;
32752;SDS011;19121;52.428;10.816;2022-09-23T00:56:12;0.38;;;0.30;;
32752;SDS011;19121;52.428;10.816;2022-09-23T00:58:38;0.55;;;0.55;;
32752;SDS011;19121;52.428;10.816;2022-09-23T01:01:06;0.38;;;0.30;;
32752;SDS011;19121;52.428;10.816;2022-09-23T01:03:31;0.40;;;0.30;;
32752;SDS011;19121;52.428;10.816;2022-09-23T01:05:57;0.55;;;0.40;;
32752;SDS011;19121;52.428;10.816;2022-09-23T01:08:23;0.40;;;0.40;;
32752;SDS011;19121;52.428;10.816;2022-09-23T01:11:12;0.50;;;0.50;;
32752;SDS011;19121;52.428;10.816;2022-09-23T01:13:54;0.30;;;0.30;;
32752;SDS011;19121;52.428;10.816;2022-09-23T01:16:51;0.30;;;0.20;;
32752;SDS011;19121;52.428;10.816;2022-09-23T01:22:02;0.75;;;0.30;;
32752;SDS011;19121;52.428;10.816;2022-09-23T01:30:45;0.60;;;0.30;;
32752;SDS011;19121;52.428;10.816;2022-09-23T01:33:22;0.40;;;0.40;;
32752;SDS011;19121;52.428;10.816;2022-09-23T01:36:03;0.57;;;0.28;;
32752;SDS011;19121;52.428;10.816;2022-09-23T01:38:54;0.40;;;0.30;;
32752;SDS011;19121;52.428;10.816;2022-09-23T01:44:12;0.70;;;0.37;;
32752;SDS011;19121;52.428;10.816;2022-09-23T01:46:57;0.50;;;0.50;;
32752;SDS011;19121;52.428;10.816;2022-09-23T01:49:32;0.40;;;0.30;;
32752;SDS011;19121;52.428;10.816;2022-09-23T01:52:05;1.38;;;0.30;;
32752;SDS011;19121;52.428;10.816;2022-09-23T01:54:36;0.55;;;0.47;;
32752;SDS011;19121;52.428;10.816;2022-09-23T01:57:06;0.30;;;0.30;;
32752;SDS011;19121;52.428;10.816;2022-09-23T01:59:38;0.32;;;0.30;;
32752;SDS011;19121;52.428;10.816;2022-09-23T02:02:12;0.52;;;0.32;;
32752;SDS011;19121;52.428;10.816;2022-09-23T02:07:10;0.57;;;0.40;;
32752;SDS011;19121;52.428;10.816;2022-09-23T02:09:41;0.40;;;0.40;;
32752;SDS011;19121;52.428;10.816;2022-09-23T02:12:11;0.40;;;0.38;;
32752;SDS011;19121;52.428;10.816;2022-09-23T02:14:48;0.35;;;0.22;;
32752;SDS011;19121;52.428;10.816;2022-09-23T02:17:25;0.30;;;0.30;;
32752;SDS011;19121;52.428;10.816;2022-09-23T02:20:02;1.17;;;0.60;;
32752;SDS011;19121;52.428;10.816;2022-09-23T02:25:04;0.30;;;0.30;;
32752;SDS011;19121;52.428;10.816;2022-09-23T02:27:35;0.17;;;0.17;;
32752;SDS011;19121;52.428;10.816;2022-09-23T02:30:19;0.20;;;0.20;;
32752;SDS011;19121;52.428;10.816;2022-09-23T02:33:01;0.82;;;0.45;;
32752;SDS011;19121;52.428;10.816;2022-09-23T02:35:37;0.65;;;0.40;;
32752;SDS011;19121;52.428;10.816;2022-09-23T02:38:18;1.02;;;0.50;;
32752;SDS011;19121;52.428;10.816;2022-09-23T02:43:34;0.63;;;0.40;;
32752;SDS011;19121;52.428;10.816;2022-09-23T02:46:12;0.90;;;0.38;;
32752;SDS011;19121;52.428;10.816;2022-09-23T02:48:40;0.50;;;0.40;;
32752;SDS011;19121;52.428;10.816;2022-09-23T02:51:10;0.30;;;0.30;;
32752;SDS011;19121;52.428;10.816;2022-09-23T02:53:37;0.85;;;0.45;;
32752;SDS011;19121;52.428;10.816;2022-09-23T02:56:13;0.40;;;0.30;;
32752;SDS011;19121;52.428;10.816;2022-09-23T02:58:40;0.82;;;0.30;;
32752;SDS011;19121;52.428;10.816;2022-09-23T03:01:07;0.77;;;0.40;;
32752;SDS011;19121;52.428;10.816;2022-09-23T03:03:43;0.77;;;0.40;;
32752;SDS011;19121;52.428;10.816;2022-09-23T03:06:25;0.40;;;0.30;;
32752;SDS011;19121;52.428;10.816;2022-09-23T03:08:58;0.43;;;0.30;;
32752;SDS011;19121;52.428;10.816;2022-09-23T03:11:28;0.35;;;0.25;;
32752;SDS011;19121;52.428;10.816;2022-09-23T03:14:08;0.70;;;0.50;;
32752;SDS011;19121;52.428;10.816;2022-09-23T03:16:49;0.43;;;0.43;;
32752;SDS011;19121;52.428;10.816;2022-09-23T03:22:01;0.50;;;0.47;;
32752;SDS011;19121;52.428;10.816;2022-09-23T03:24:32;0.20;;;0.20;;
32752;SDS011;19121;52.428;10.816;2022-09-23T03:27:00;0.63;;;0.50;;
32752;SDS011;19121;52.428;10.816;2022-09-23T03:29:29;0.67;;;0.30;;
32752;SDS011;19121;52.428;10.816;2022-09-23T03:31:57;0.40;;;0.30;;
32752;SDS011;19121;52.428;10.816;2022-09-23T03:34:25;0.40;;;0.32;;
32752;SDS011;19121;52.428;10.816;2022-09-23T03:36:54;1.03;;;0.77;;
32752;SDS011;19121;52.428;10.816;2022-09-23T03:42:22;0.93;;;0.40;;
32752;SDS011;19121;52.428;10.816;2022-09-23T03:44:54;0.50;;;0.30;;
32752;SDS011;19121;52.428;10.816;2022-09-23T03:47:21;1.02;;;0.68;;
32752;SDS011;19121;52.428;10.816;2022-09-23T03:49:48;0.40;;;0.40;;
32752;SDS011;19121;52.428;10.816;2022-09-23T03:52:16;0.35;;;0.30;;
32752;SDS011;19121;52.428;10.816;2022-09-23T03:54:42;0.40;;;0.35;;
32752;SDS011;19121;52.428;10.816;2022-09-23T03:57:08;0.30;;;0.30;;
32752;SDS011;19121;52.428;10.816;2022-09-23T03:59:35;0.30;;;0.30;;
32752;SDS011;19121;52.428;10.816;2022-09-23T04:02:01;1.75;;;0.30;;
32752;SDS011;19121;52.428;10.816;2022-09-23T04:04:27;1.60;;;0.50;;
32752;SDS011;19121;52.428;10.816;2022-09-23T04:06:54;0.32;;;0.30;;
32752;SDS011;19121;52.428;10.816;2022-09-23T04:09:20;0.30;;;0.30;;
32752;SDS011;19121;52.428;10.816;2022-09-23T04:11:47;0.40;;;0.32;;
32752;SDS011;19121;52.428;10.816;2022-09-23T04:14:14;0.93;;;0.50;;
32752;SDS011;19121;52.428;10.816;2022-09-23T04:16:40;0.30;;;0.30;;
32752;SDS011;19121;52.428;10.816;2022-09-23T04:19:05;0.22;;;0.20;;
32752;SDS011;19121;52.428;10.816;2022-09-23T04:21:31;0.28;;;0.20;;
32752;SDS011;19121;52.428;10.816;2022-09-23T04:23:56;0.50;;;0.38;;
32752;SDS011;19121;52.428;10.816;2022-09-23T04:26:22;0.68;;;0.40;;
32752;SDS011;19121;52.428;10.816;2022-09-23T04:28:47;0.45;;;0.30;;
32752;SDS011;19121;52.428;10.816;2022-09-23T04:31:13;0.57;;;0.40;;
32752;SDS011;19121;52.428;10.816;2022-09-23T04:33:38;0.45;;;0.40;;
32752;SDS011;19121;52.428;10.816;2022-09-23T04:36:04;0.32;;;0.32;;
32752;SDS011;19121;52.428;10.816;2022-09-23T04:38:29;0.77;;;0.40;;
32752;SDS011;19121;52.428;10.816;2022-09-23T04:40:55;0.30;;;0.30;;
32752;SDS011;19121;52.428;10.816;2022-09-23T04:43:20;0.32;;;0.28;;
32752;SDS011;19121;52.428;10.816;2022-09-23T04:45:55;0.50;;;0.40;;
32752;SDS011;19121;52.428;10.816;2022-09-23T04:48:22;0.47;;;0.30;;
32752;SDS011;19121;52.428;10.816;2022-09-23T04:50:47;0.30;;;0.30;;
32752;SDS011;19121;52.428;10.816;2022-09-23T04:53:13;0.30;;;0.30;;
32752;SDS011;19121;52.428;10.816;2022-09-23T04:55:38;0.30;;;0.30;;
32752;SDS011;19121;52.428;10.816;2022-09-23T04:58:05;0.32;;;0.30;;
32752;SDS011;19121;52.428;10.816;2022-09-23T05:00:33;0.43;;;0.32;;
32752;SDS011;19121;52.428;10.816;2022-09-23T05:02:58;0.40;;;0.35;;
32752;SDS011;19121;52.428;10.816;2022-09-23T05:05:24;0.25;;;0.22;;
32752;SDS011;19121;52.428;10.816;2022-09-23T05:07:50;0.40;;;0.30;;
32752;SDS011;19121;52.428;10.816;2022-09-23T05:10:15;0.45;;;0.40;;
32752;SDS011;19121;52.428;10.816;2022-09-23T05:12:41;1.02;;;0.85;;
32752;SDS011;19121;52.428;10.816;2022-09-23T05:15:07;0.60;;;0.40;;
32752;SDS011;19121;52.428;10.816;2022-09-23T05:17:32;0.50;;;0.47;;
32752;SDS011;19121;52.428;10.816;2022-09-23T05:19:58;0.43;;;0.40;;
32752;SDS011;19121;52.428;10.816;2022-09-23T05:22:24;0.38;;;0.28;;
32752;SDS011;19121;52.428;10.816;2022-09-23T05:24:50;0.57;;;0.40;;
32752;SDS011;19121;52.428;10.816;2022-09-23T05:27:16;1.10;;;0.35;;
32752;SDS011;19121;52.428;10.816;2022-09-23T05:29:42;0.52;;;0.40;;
32752;SDS011;19121;52.428;10.816;2022-09-23T05:32:08;1.30;;;0.35;;
32752;SDS011;19121;52.428;10.816;2022-09-23T05:34:34;0.32;;;0.30;;
32752;SDS011;19121;52.428;10.816;2022-09-23T05:36:59;0.20;;;0.20;;
32752;SDS011;19121;52.428;10.816;2022-09-23T05:39:25;0.35;;;0.30;;
32752;SDS011;19121;52.428;10.816;2022-09-23T05:41:50;0.32;;;0.30;;
32752;SDS011;19121;52.428;10.816;2022-09-23T05:44:17;0.30;;;0.30;;
32752;SDS011;19121;52.428;10.816;2022-09-23T05:46:43;1.30;;;0.50;;
32752;SDS011;19121;52.428;10.816;2022-09-23T05:49:08;4.53;;;0.57;;
32752;SDS011;19121;52.428;10.816;2022-09-23T05:51:34;0.73;;;0.52;;
32752;SDS011;19121;52.428;10.816;2022-09-23T05:54:00;3.35;;;0.40;;
32752;SDS011;19121;52.428;10.816;2022-09-23T05:56:27;1.20;;;0.50;;
32752;SDS011;19121;52.428;10.816;2022-09-23T05:58:55;2.72;;;0.40;;
32752;SDS011;19121;52.428;10.816;2022-09-23T06:01:23;0.50;;;0.40;;
32752;SDS011;19121;52.428;10.816;2022-09-23T06:03:53;0.63;;;0.40;;
32752;SDS011;19121;52.428;10.816;2022-09-23T06:06:22;2.03;;;0.50;;
32752;SDS011;19121;52.428;10.816;2022-09-23T06:08:57;1.17;;;0.60;;
32752;SDS011;19121;52.428;10.816;2022-09-23T06:11:24;0.80;;;0.60;;
32752;SDS011;19121;52.428;10.816;2022-09-23T06:13:53;7.60;;;0.65;;
32752;SDS011;19121;52.428;10.816;2022-09-23T06:16:20;0.95;;;0.70;;
32752;SDS011;19121;52.428;10.816;2022-09-23T06:18:45;0.80;;;0.55;;
32752;SDS011;19121;52.428;10.816;2022-09-23T06:21:12;1.33;;;0.70;;
32752;SDS011;19121;52.428;10.816;2022-09-23T06:23:38;0.30;;;0.30;;
32752;SDS011;19121;52.428;10.816;2022-09-23T06:26:05;1.77;;;0.60;;
32752;SDS011;19121;52.428;10.816;2022-09-23T06:28:33;0.63;;;0.60;;
32752;SDS011;19121;52.428;10.816;2022-09-23T06:31:01;0.98;;;0.50;;
32752;SDS011;19121;52.428;10.816;2022-09-23T06:33:34;0.95;;;0.80;;
32752;SDS011;19121;52.428;10.816;2022-09-23T06:36:01;1.50;;;0.60;;
32752;SDS011;19121;52.428;10.816;2022-09-23T06:38:28;0.68;;;0.55;;
32752;SDS011;19121;52.428;10.816;2022-09-23T06:40:55;1.33;;;0.60;;
32752;SDS011;19121;52.428;10.816;2022-09-23T06:43:22;2.05;;;0.60;;
32752;SDS011;19121;52.428;10.816;2022-09-23T06:45:55;0.73;;;0.63;;
32752;SDS011;19121;52.428;10.816;2022-09-23T06:48:25;1.48;;;0.82;;
32752;SDS011;19121;52.428;10.816;2022-09-23T06:50:52;1.75;;;0.50;;
32752;SDS011;19121;52.428;10.816;2022-09-23T06:53:18;4.32;;;1.02;;
32752;SDS011;19121;52.428;10.816;2022-09-23T06:55:47;4.20;;;0.90;;
32752;SDS011;19121;52.428;10.816;2022-09-23T06:58:21;1.77;;;0.55;;
32752;SDS011;19121;52.428;10.816;2022-09-23T07:00:46;1.27;;;0.55;;
32752;SDS011;19121;52.428;10.816;2022-09-23T07:03:12;0.80;;;0.57;;
32752;SDS011;19121;52.428;10.816;2022-09-23T07:05:37;1.83;;;0.55;;
32752;SDS011;19121;52.428;10.816;2022-09-23T07:08:06;1.23;;;1.00;;
32752;SDS011;19121;52.428;10.816;2022-09-23T07:13:00;0.95;;;0.60;;
32752;SDS011;19121;52.428;10.816;2022-09-23T07:15:26;1.75;;;0.50;;
32752;SDS011;19121;52.428;10.816;2022-09-23T07:17:51;1.73;;;0.45;;
32752;SDS011;19121;52.428;10.816;2022-09-23T07:20:16;0.80;;;0.70;;
32752;SDS011;19121;52.428;10.816;2022-09-23T07:22:42;1.05;;;0.80;;
32752;SDS011;19121;52.428;10.816;2022-09-23T07:25:27;1.20;;;0.60;;
32752;SDS011;19121;52.428;10.816;2022-09-23T07:27:54;2.47;;;0.68;;
32752;SDS011;19121;52.428;10.816;2022-09-23T07:30:20;1.67;;;0.65;;
32752;SDS011;19121;52.428;10.816;2022-09-23T07:32:45;1.27;;;0.70;;
32752;SDS011;19121;52.428;10.816;2022-09-23T07:35:11;2.45;;;0.60;;
32752;SDS011;19121;52.428;10.816;2022-09-23T07:37:37;1.92;;;0.60;;
32752;SDS011;19121;52.428;10.816;2022-09-23T07:40:02;1.50;;;0.88;;
32752;SDS011;19121;52.428;10.816;2022-09-23T07:42:28;0.70;;;0.50;;
32752;SDS011;19121;52.428;10.816;2022-09-23T07:44:54;2.20;;;0.70;;
32752;SDS011;19121;52.428;10.816;2022-09-23T07:47:21;2.45;;;0.80;;
32752;SDS011;19121;52.428;10.816;2022-09-23T07:49:47;0.77;;;0.52;;
32752;SDS011;19121;52.428;10.816;2022-09-23T07:52:12;1.65;;;0.90;;
32752;SDS011;19121;52.428;10.816;2022-09-23T07:54:38;1.73;;;0.60;;
32752;SDS011;19121;52.428;10.816;2022-09-23T07:57:03;3.45;;;0.57;;
32752;SDS011;19121;52.428;10.816;2022-09-23T07:59:29;1.85;;;0.63;;
32752;SDS011;19121;52.428;10.816;2022-09-23T08:01:55;1.85;;;0.73;;
32752;SDS011;19121;52.428;10.816;2022-09-23T08:04:22;1.83;;;0.73;;
32752;SDS011;19121;52.428;10.816;2022-09-23T08:06:51;3.17;;;0.60;;
32752;SDS011;19121;52.428;10.816;2022-09-23T08:09:19;6.45;;;0.80;;
32752;SDS011;19121;52.428;10.816;2022-09-23T08:11:47;1.77;;;0.50;;
32752;SDS011;19121;52.428;10.816;2022-09-23T08:14:13;1.85;;;0.55;;
32752;SDS011;19121;52.428;10.816;2022-09-23T08:16:39;2.00;;;0.88;;
32752;SDS011;19121;52.428;10.816;2022-09-23T08:19:06;0.82;;;0.50;;
32752;SDS011;19121;52.428;10.816;2022-09-23T08:21:32;2.30;;;0.52;;
32752;SDS011;19121;52.428;10.816;2022-09-23T08:23:58;1.27;;;0.47;;
32752;SDS011;19121;52.428;10.816;2022-09-23T08:26:23;1.63;;;0.60;;
32752;SDS011;19121;52.428;10.816;2022-09-23T08:28:49;0.90;;;0.60;;
32752;SDS011;19121;52.428;10.816;2022-09-23T08:31:22;0.95;;;0.55;;
32752;SDS011;19121;52.428;10.816;2022-09-23T08:33:54;1.00;;;0.50;;
32752;SDS011;19121;52.428;10.816;2022-09-23T08:36:21;2.72;;;0.60;;
32752;SDS011;19121;52.428;10.816;2022-09-23T08:38:48;1.05;;;0.32;;
32752;SDS011;19121;52.428;10.816;2022-09-23T08:44:07;1.52;;;0.70;;
32752;SDS011;19121;52.428;10.816;2022-09-23T08:49:32;1.63;;;0.50;;
32752;SDS011;19121;52.428;10.816;2022-09-23T08:52:05;4.00;;;0.80;;
32752;SDS011;19121;52.428;10.816;2022-09-23T08:54:38;0.95;;;0.80;;
32752;SDS011;19121;52.428;10.816;2022-09-23T08:57:03;1.20;;;0.40;;
32752;SDS011;19121;52.428;10.816;2022-09-23T08:59:41;1.35;;;0.50;;
32752;SDS011;19121;52.428;10.816;2022-09-23T09:02:11;1.17;;;0.63;;
32752;SDS011;19121;52.428;10.816;2022-09-23T09:04:43;1.42;;;0.50;;
32752;SDS011;19121;52.428;10.816;2022-09-23T09:07:13;0.45;;;0.45;;
32752;SDS011;19121;52.428;10.816;2022-09-23T09:09:44;2.17;;;0.60;;
32752;SDS011;19121;52.428;10.816;2022-09-23T09:12:18;5.10;;;0.50;;
32752;SDS011;19121;52.428;10.816;2022-09-23T09:14:55;2.45;;;0.80;;
32752;SDS011;19121;52.428;10.816;2022-09-23T09:17:28;1.25;;;0.63;;
32752;SDS011;19121;52.428;10.816;2022-09-23T09:20:11;1.55;;;0.70;;
32752;SDS011;19121;52.428;10.816;2022-09-23T09:22:54;1.80;;;0.98;;
32752;SDS011;19121;52.428;10.816;2022-09-23T09:25:44;4.60;;;0.80;;
32752;SDS011;19121;52.428;10.816;2022-09-23T09:28:14;1.40;;;0.60;;
32752;SDS011;19121;52.428;10.816;2022-09-23T09:30:43;1.58;;;0.68;;
32752;SDS011;19121;52.428;10.816;2022-09-23T09:33:13;2.25;;;0.68;;
32752;SDS011;19121;52.428;10.816;2022-09-23T09:35:58;2.25;;;0.75;;
32752;SDS011;19121;52.428;10.816;2022-09-23T09:38:38;3.22;;;0.70;;
32752;SDS011;19121;52.428;10.816;2022-09-23T09:41:09;2.65;;;0.75;;
32752;SDS011;19121;52.428;10.816;2022-09-23T09:43:39;1.20;;;0.65;;
32752;SDS011;19121;52.428;10.816;2022-09-23T09:46:09;4.30;;;0.60;;
32752;SDS011;19121;52.428;10.816;2022-09-23T09:48:51;2.05;;;0.85;;
32752;SDS011;19121;52.428;10.816;2022-09-23T09:51:24;1.17;;;0.70;;
32752;SDS011;19121;52.428;10.816;2022-09-23T09:53:51;1.23;;;0.60;;
32752;SDS011;19121;52.428;10.816;2022-09-23T09:56:20;1.73;;;0.80;;
32752;SDS011;19121;52.428;10.816;2022-09-23T09:58:52;1.08;;;0.73;;
32752;SDS011;19121;52.428;10.816;2022-09-23T10:03:50;1.42;;;0.65;;
32752;SDS011;19121;52.428;10.816;2022-09-23T10:06:22;2.17;;;0.73;;
32752;SDS011;19121;52.428;10.816;2022-09-23T10:09:04;2.25;;;0.85;;
32752;SDS011;19121;52.428;10.816;2022-09-23T10:11:35;1.65;;;0.80;;
32752;SDS011;19121;52.428;10.816;2022-09-23T10:14:09;0.80;;;0.60;;
32752;SDS011;19121;52.428;10.816;2022-09-23T10:16:35;4.88;;;1.20;;
32752;SDS011;19121;52.428;10.816;2022-09-23T10:19:01;1.23;;;0.82;;
32752;SDS011;19121;52.428;10.816;2022-09-23T10:21:31;1.15;;;0.70;;
32752;SDS011;19121;52.428;10.816;2022-09-23T10:24:00;1.90;;;0.80;;
32752;SDS011;19121;52.428;10.816;2022-09-23T10:26:30;1.67;;;0.85;;
32752;SDS011;19121;52.428;10.816;2022-09-23T10:29:22;2.53;;;0.70;;
32752;SDS011;19121;52.428;10.816;2022-09-23T10:34:57;1.00;;;0.50;;
32752;SDS011;19121;52.428;10.816;2022-09-23T10:37:38;2.30;;;0.75;;
32752;SDS011;19121;52.428;10.816;2022-09-23T10:40:11;3.47;;;1.30;;
32752;SDS011;19121;52.428;10.816;2022-09-23T10:43:13;2.75;;;0.82;;
32752;SDS011;19121;52.428;10.816;2022-09-23T10:46:02;0.70;;;0.52;;
32752;SDS011;19121;52.428;10.816;2022-09-23T10:49:00;1.27;;;0.90;;
32752;SDS011;19121;52.428;10.816;2022-09-23T10:51:51;3.58;;;0.77;;
32752;SDS011;19121;52.428;10.816;2022-09-23T10:54:55;0.98;;;0.75;;
32752;SDS011;19121;52.428;10.816;2022-09-23T11:02:58;1.40;;;0.75;;
32752;SDS011;19121;52.428;10.816;2022-09-23T11:05:41;1.40;;;0.80;;
32752;SDS011;19121;52.428;10.816;2022-09-23T11:08:30;1.95;;;0.90;;
32752;SDS011;19121;52.428;10.816;2022-09-23T11:11:26;1.80;;;0.93;;
32752;SDS011;19121;52.428;10.816;2022-09-23T11:14:21;1.65;;;0.80;;
32752;SDS011;19121;52.428;10.816;2022-09-23T11:17:23;3.30;;;0.98;;
32752;SDS011;19121;52.428;10.816;2022-09-23T11:20:42;1.75;;;0.82;;
32752;SDS011;19121;52.428;10.816;2022-09-23T11:26:16;1.88;;;0.80;;
32752;SDS011;19121;52.428;10.816;2022-09-23T11:34:50;3.90;;;1.33;;
32752;SDS011;19121;52.428;10.816;2022-09-23T11:37:39;3.17;;;0.80;;
32752;SDS011;19121;52.428;10.816;2022-09-23T11:42:50;1.40;;;0.65;;
32752;SDS011;19121;52.428;10.816;2022-09-23T11:45:22;1.63;;;0.60;;
32752;SDS011;19121;52.428;10.816;2022-09-23T11:47:56;1.48;;;0.80;;
32752;SDS011;19121;52.428;10.816;2022-09-23T11:53:19;1.48;;;0.63;;
32752;SDS011;19121;52.428;10.816;2022-09-23T11:56:06;2.22;;;0.95;;
32752;SDS011;19121;52.428;10.816;2022-09-23T11:58:57;1.33;;;0.88;;
32752;SDS011;19121;52.428;10.816;2022-09-23T12:01:47;3.50;;;1.50;;
32752;SDS011;19121;52.428;10.816;2022-09-23T12:04:23;2.63;;;1.02;;
32752;SDS011;19121;52.428;10.816;2022-09-23T12:06:59;1.40;;;0.90;;
32752;SDS011;19121;52.428;10.816;2022-09-23T12:09:43;1.95;;;0.90;;
32752;SDS011;19121;52.428;10.816;2022-09-23T12:12:21;3.40;;;1.42;;
32752;SDS011;19121;52.428;10.816;2022-09-23T12:14:56;4.65;;;0.95;;
32752;SDS011;19121;52.428;10.816;2022-09-23T12:20:32;2.05;;;1.10;;
32752;SDS011;19121;52.428;10.816;2022-09-23T12:23:17;1.60;;;1.17;;
32752;SDS011;19121;52.428;10.816;2022-09-23T12:26:01;1.65;;;0.68;;
32752;SDS011;19121;52.428;10.816;2022-09-23T12:28:39;1.63;;;0.80;;
32752;SDS011;19121;52.428;10.816;2022-09-23T12:31:11;1.92;;;1.08;;
32752;SDS011;19121;52.428;10.816;2022-09-23T12:33:39;3.45;;;1.50;;
32752;SDS011;19121;52.428;10.816;2022-09-23T12:36:16;1.95;;;0.98;;
32752;SDS011;19121;52.428;10.816;2022-09-23T12:38:51;3.30;;;1.42;;
32752;SDS011;19121;52.428;10.816;2022-09-23T12:41:27;1.15;;;1.02;;
32752;SDS011;19121;52.428;10.816;2022-09-23T12:46:36;2.47;;;0.60;;
32752;SDS011;19121;52.428;10.816;2022-09-23T12:49:03;2.53;;;1.15;;
32752;SDS011;19121;52.428;10.816;2022-09-23T12:51:34;1.95;;;1.25;;
32752;SDS011;19121;52.428;10.816;2022-09-23T12:59:00;2.70;;;0.88;;
32752;SDS011;19121;52.428;10.816;2022-09-23T13:01:40;1.33;;;0.77;;
32752;SDS011;19121;52.428;10.816;2022-09-23T13:04:11;2.88;;;1.05;;
32752;SDS011;19121;52.428;10.816;2022-09-23T13:07:21;3.75;;;1.40;;
32752;SDS011;19121;52.428;10.816;2022-09-23T13:09:50;1.88;;;0.68;;
32752;SDS011;19121;52.428;10.816;2022-09-23T13:12:24;1.00;;;0.60;;
32752;SDS011;19121;52.428;10.816;2022-09-23T13:14:53;1.60;;;1.02;;
32752;SDS011;19121;52.428;10.816;2022-09-23T13:17:37;3.03;;;1.10;;
32752;SDS011;19121;52.428;10.816;2022-09-23T13:20:05;1.77;;;1.00;;
32752;SDS011;19121;52.428;10.816;2022-09-23T13:23:02;3.10;;;1.40;;
32752;SDS011;19121;52.428;10.816;2022-09-23T13:25:30;1.77;;;0.95;;
32752;SDS011;19121;52.428;10.816;2022-09-23T13:28:02;0.80;;;0.80;;
32752;SDS011;19121;52.428;10.816;2022-09-23T13:30:48;1.27;;;0.70;;
32752;SDS011;19121;52.428;10.816;2022-09-23T13:33:17;1.67;;;0.80;;
32752;SDS011;19121;52.428;10.816;2022-09-23T13:36:07;1.55;;;1.13;;
32752;SDS011;19121;52.428;10.816;2022-09-23T13:38:36;3.40;;;0.98;;
32752;SDS011;19121;52.428;10.816;2022-09-23T13:41:02;1.60;;;1.00;;
32752;SDS011;19121;52.428;10.816;2022-09-23T13:43:34;2.00;;;1.10;;
32752;SDS011;19121;52.428;10.816;2022-09-23T13:48:37;1.27;;;0.90;;
32752;SDS011;19121;52.428;10.816;2022-09-23T13:51:07;2.20;;;0.73;;
32752;SDS011;19121;52.428;10.816;2022-09-23T13:53:34;2.13;;;0.80;;
32752;SDS011;19121;52.428;10.816;2022-09-23T13:58:38;1.58;;;0.90;;
32752;SDS011;19121;52.428;10.816;2022-09-23T14:01:07;1.25;;;1.00;;
32752;SDS011;19121;52.428;10.816;2022-09-23T14:03:34;2.15;;;0.90;;
32752;SDS011;19121;52.428;10.816;2022-09-23T14:06:08;2.40;;;1.15;;
32752;SDS011;19121;52.428;10.816;2022-09-23T14:08:38;3.05;;;1.65;;
32752;SDS011;19121;52.428;10.816;2022-09-23T14:11:13;1.50;;;1.00;;
32752;SDS011;19121;52.428;10.816;2022-09-23T14:13:40;1.83;;;0.95;;
32752;SDS011;19121;52.428;10.816;2022-09-23T14:16:08;2.10;;;1.00;;
32752;SDS011;19121;52.428;10.816;2022-09-23T14:18:39;1.85;;;1.20;;
32752;SDS011;19121;52.428;10.816;2022-09-23T14:21:27;1.88;;;1.50;;
32752;SDS011;19121;52.428;10.816;2022-09-23T14:23:53;1.58;;;1.00;;
32752;SDS011;19121;52.428;10.816;2022-09-23T14:26:18;1.45;;;1.25;;
32752;SDS011;19121;52.428;10.816;2022-09-23T14:28:45;1.20;;;0.73;;
32752;SDS011;19121;52.428;10.816;2022-09-23T14:31:11;3.72;;;0.90;;
32752;SDS011;19121;52.428;10.816;2022-09-23T14:33:38;1.90;;;1.00;;
32752;SDS011;19121;52.428;10.816;2022-09-23T14:36:13;3.92;;;0.90;;
32752;SDS011;19121;52.428;10.816;2022-09-23T14:39:03;1.85;;;1.05;;
32752;SDS011;19121;52.428;10.816;2022-09-23T14:41:35;2.30;;;1.40;;
32752;SDS011;19121;52.428;10.816;2022-09-23T14:44:04;0.82;;;0.68;;
32752;SDS011;19121;52.428;10.816;2022-09-23T14:46:34;2.05;;;1.25;;
32752;SDS011;19121;52.428;10.816;2022-09-23T14:49:20;2.92;;;0.75;;
32752;SDS011;19121;52.428;10.816;2022-09-23T14:51:47;1.15;;;0.85;;
32752;SDS011;19121;52.428;10.816;2022-09-23T14:57:01;1.40;;;0.93;;
32752;SDS011;19121;52.428;10.816;2022-09-23T14:59:46;2.70;;;1.17;;
32752;SDS011;19121;52.428;10.816;2022-09-23T15:02:26;2.25;;;0.80;;
32752;SDS011;19121;52.428;10.816;2022-09-23T15:05:38;1.48;;;1.08;;
32752;SDS011;19121;52.428;10.816;2022-09-23T15:08:13;1.27;;;1.10;;
32752;SDS011;19121;52.428;10.816;2022-09-23T15:10:47;4.07;;;1.25;;
32752;SDS011;19121;52.428;10.816;2022-09-23T15:15:41;2.05;;;1.00;;
32752;SDS011;19121;52.428;10.816;2022-09-23T15:18:18;3.22;;;1.15;;
32752;SDS011;19121;52.428;10.816;2022-09-23T15:20:49;2.50;;;1.20;;
32752;SDS011;19121;52.428;10.816;2022-09-23T15:23:31;1.90;;;1.02;;
32752;SDS011;19121;52.428;10.816;2022-09-23T15:26:01;1.17;;;0.73;;
32752;SDS011;19121;52.428;10.816;2022-09-23T15:28:30;0.98;;;0.90;;
32752;SDS011;19121;52.428;10.816;2022-09-23T15:30:55;1.20;;;0.80;;
32752;SDS011;19121;52.428;10.816;2022-09-23T15:33:21;1.98;;;1.02;;
32752;SDS011;19121;52.428;10.816;2022-09-23T15:35:51;1.83;;;1.00;;
32752;SDS011;19121;52.428;10.816;2022-09-23T15:38:18;1.40;;;0.90;;
32752;SDS011;19121;52.428;10.816;2022-09-23T15:40:44;1.20;;;0.82;;
32752;SDS011;19121;52.428;10.816;2022-09-23T15:43:12;2.22;;;1.00;;
32752;SDS011;19121;52.428;10.816;2022-09-23T15:45:46;0.98;;;0.80;;
32752;SDS011;19121;52.428;10.816;2022-09-23T15:48:14;1.92;;;0.77;;
32752;SDS011;19121;52.428;10.816;2022-09-23T15:50:43;2.63;;;1.00;;
32752;SDS011;19121;52.428;10.816;2022-09-23T15:53:12;1.20;;;0.80;;
32752;SDS011;19121;52.428;10.816;2022-09-23T15:55:39;1.15;;;0.73;;
32752;SDS011;19121;52.428;10.816;2022-09-23T15:58:05;1.77;;;0.90;;
32752;SDS011;19121;52.428;10.816;2022-09-23T16:00:31;4.15;;;0.70;;
32752;SDS011;19121;52.428;10.816;2022-09-23T16:02:59;4.07;;;0.68;;
32752;SDS011;19121;52.428;10.816;2022-09-23T16:05:26;2.15;;;1.60;;
32752;SDS011;19121;52.428;10.816;2022-09-23T16:08:00;1.50;;;0.77;;
32752;SDS011;19121;52.428;10.816;2022-09-23T16:10:26;1.58;;;0.80;;
32752;SDS011;19121;52.428;10.816;2022-09-23T16:12:53;1.83;;;0.85;;
32752;SDS011;19121;52.428;10.816;2022-09-23T16:15:22;1.92;;;1.08;;
32752;SDS011;19121;52.428;10.816;2022-09-23T16:17:48;1.90;;;0.88;;
32752;SDS011;19121;52.428;10.816;2022-09-23T16:20:14;1.10;;;0.95;;